Time;durP1;ratioP1;P1;durP2;ratioP2;P2;SDS_P1;SDS_P2;PMS_P1;PMS_P2;Temp;Humidity;BMP_temperature;BMP_pressure;BME280_temperature;BME280_humidity;BME280_pressure;Samples;Min_cycle;Max_cycle;Signal;HPM_P1;HPM_P2
2022/12/12 00:01:50;;;;;;;;;53.00;40.00;;;;;-0.34;71.19;100583.91;5074022;27;46214;-64
2022/12/12 00:04:23;;;;;;;;;48.00;37.33;;;;;-0.38;71.69;100587.19;5084847;27;45509;-65
2022/12/12 00:06:54;;;;;;;;;50.33;39.00;;;;;-0.46;71.80;100568.81;5070812;27;45815;-67
2022/12/12 00:09:35;;;;;;;;;51.33;36.00;;;;;-0.45;71.67;100569.72;5052389;27;45970;-63
2022/12/12 00:12:00;;;;;;;;;53.00;37.67;;;;;-0.33;71.64;100597.63;5053924;28;46265;-65
2022/12/12 00:14:26;;;;;;;;;43.00;34.67;;;;;-0.39;72.17;100585.41;5059264;28;45783;-66
2022/12/12 00:16:52;;;;;;;;;52.00;40.00;;;;;-0.36;71.79;100592.38;5061175;28;45693;-65
2022/12/12 00:19:24;;;;;;;;;45.00;37.33;;;;;-0.55;72.72;100586.41;5084408;27;46148;-70
2022/12/12 00:21:50;;;;;;;;;53.33;39.67;;;;;-0.59;73.27;100592.25;5072503;27;46679;-64
2022/12/12 00:24:16;;;;;;;;;42.00;36.00;;;;;-0.53;72.50;100592.50;5064252;28;45530;-64
2022/12/12 00:26:41;;;;;;;;;50.00;37.00;;;;;-0.52;72.57;100576.28;5053532;28;45806;-63
2022/12/12 00:29:07;;;;;;;;;46.33;34.33;;;;;-0.50;71.92;100569.50;5043506;28;45383;-64
2022/12/12 00:31:33;;;;;;;;;44.67;36.00;;;;;-0.53;72.78;100563.34;5052234;27;47496;-63
2022/12/12 00:33:59;;;;;;;;;42.67;35.00;;;;;-0.53;72.48;100579.66;5053176;28;45347;-65
2022/12/12 00:36:27;;;;;;;;;54.33;37.33;;;;;-0.56;72.82;100592.38;5041186;28;45528;-68
2022/12/12 00:38:54;;;;;;;;;39.67;35.00;;;;;-0.77;73.69;100584.56;5039972;28;45459;-63
2022/12/12 00:41:20;;;;;;;;;50.67;35.33;;;;;-0.80;73.66;100594.75;5060836;28;46699;-63
2022/12/12 00:43:46;;;;;;;;;51.67;34.00;;;;;-0.73;73.79;100596.78;5075328;28;45407;-66
2022/12/12 00:46:20;;;;;;;;;36.33;29.00;;;;;-0.60;73.96;100605.03;5069821;28;45366;-62
2022/12/12 00:48:46;;;;;;;;;28.33;28.33;;;;;-0.56;72.64;100606.94;5061803;28;45588;-64
2022/12/12 00:51:16;;;;;;;;;47.00;35.00;;;;;-0.52;72.62;100607.16;5077192;28;46384;-64
2022/12/12 00:53:42;;;;;;;;;47.33;33.33;;;;;-0.54;73.59;100615.63;5057945;28;45465;-63
2022/12/12 00:56:08;;;;;;;;;42.67;35.33;;;;;-0.61;73.04;100614.44;5073580;28;45675;-62
2022/12/12 00:58:34;;;;;;;;;43.67;29.67;;;;;-0.61;72.75;100590.44;5071275;28;45410;-61
2022/12/12 01:01:05;;;;;;;;;54.33;35.67;;;;;-0.65;72.75;100605.69;5048068;28;46795;-65
2022/12/12 01:03:38;;;;;;;;;47.67;34.00;;;;;-0.63;73.26;100604.91;5054495;27;46019;-63
2022/12/12 01:06:04;;;;;;;;;46.33;38.00;;;;;-0.62;73.15;100606.66;5046033;28;45493;-62
2022/12/12 01:08:29;;;;;;;;;39.67;31.33;;;;;-0.73;72.74;100595.91;5054642;28;45517;-63
2022/12/12 01:10:55;;;;;;;;;41.67;32.67;;;;;-0.73;73.29;100585.63;5061755;28;45577;-63
2022/12/12 01:13:21;;;;;;;;;33.33;29.33;;;;;-0.72;73.54;100590.81;5052984;28;45758;-64
2022/12/12 01:15:47;;;;;;;;;46.00;34.67;;;;;-0.77;73.19;100588.84;5055723;28;45491;-66
2022/12/12 01:18:13;;;;;;;;;36.00;26.67;;;;;-0.74;73.29;100594.13;5051171;28;45317;-62
2022/12/12 01:20:40;;;;;;;;;35.33;29.67;;;;;-0.65;73.39;100600.56;5052661;27;46768;-61
2022/12/12 01:23:05;;;;;;;;;43.33;30.67;;;;;-0.76;73.56;100580.31;5070268;27;45526;-63
2022/12/12 01:25:31;;;;;;;;;46.67;31.67;;;;;-0.70;72.55;100596.91;5067012;28;46020;-62
2022/12/12 01:27:58;;;;;;;;;41.33;35.00;;;;;-0.78;72.40;100589.63;5068785;28;45371;-61
2022/12/12 01:30:23;;;;;;;;;49.00;35.00;;;;;-0.79;72.77;100599.06;5066814;28;46552;-62
2022/12/12 01:32:49;;;;;;;;;40.33;28.67;;;;;-0.69;72.43;100600.34;5053510;28;45864;-62
2022/12/12 01:35:15;;;;;;;;;42.00;33.33;;;;;-0.60;72.15;100594.75;5049853;28;45731;-63
2022/12/12 01:37:49;;;;;;;;;48.00;36.33;;;;;-0.60;72.01;100590.47;5059755;28;45528;-63
2022/12/12 01:40:26;;;;;;;;;44.00;34.33;;;;;-0.49;72.10;100614.13;5059270;28;47161;-62
2022/12/12 01:42:52;;;;;;;;;49.67;35.67;;;;;-0.52;71.22;100604.56;5077299;28;45487;-62
2022/12/12 01:45:54;;;;;;;;;51.67;35.00;;;;;-0.59;71.54;100620.56;5077671;27;45515;-63
2022/12/12 01:48:22;;;;;;;;;49.33;36.67;;;;;-0.57;72.01;100612.88;5066154;28;45403;-62
2022/12/12 01:50:49;;;;;;;;;43.67;31.00;;;;;-0.61;72.25;100601.59;5073275;28;46378;-63
2022/12/12 01:53:19;;;;;;;;;54.00;36.00;;;;;-0.58;71.87;100606.00;5072878;28;45440;-62
2022/12/12 01:55:47;;;;;;;;;46.33;31.00;;;;;-0.69;72.25;100621.81;5072667;27;45377;-62
2022/12/12 01:58:13;;;;;;;;;47.00;36.67;;;;;-0.71;71.81;100615.72;5066565;28;45802;-62
2022/12/12 02:00:39;;;;;;;;;48.67;35.00;;;;;-0.65;71.42;100621.13;5070473;28;45302;-61
2022/12/12 02:03:11;;;;;;;;;50.67;35.00;;;;;-0.66;72.31;100601.38;5076948;27;45338;-65
2022/12/12 02:05:50;;;;;;;;;47.67;32.67;;;;;-0.57;72.39;100618.94;5077151;27;45571;-63
2022/12/12 02:08:18;;;;;;;;;40.67;31.67;;;;;-0.55;71.28;100612.13;5076872;28;45339;-64
2022/12/12 02:10:44;;;;;;;;;41.33;28.67;;;;;-0.49;71.42;100619.25;5075759;28;45727;-63
2022/12/12 02:13:14;;;;;;;;;40.33;34.33;;;;;-0.52;71.57;100613.97;5072671;28;45736;-63
2022/12/12 02:15:48;;;;;;;;;41.33;30.33;;;;;-0.46;71.39;100617.69;5073100;28;45777;-62
2022/12/12 02:18:20;;;;;;;;;47.33;35.00;;;;;-0.45;72.11;100611.75;5072463;28;45470;-63
2022/12/12 02:20:54;;;;;;;;;37.00;30.33;;;;;-0.48;71.92;100609.03;5054124;27;47650;-63
2022/12/12 02:23:34;;;;;;;;;45.00;30.00;;;;;-0.50;71.12;100605.53;5071283;27;45395;-64
2022/12/12 02:26:34;;;;;;;;;44.33;33.67;;;;;-0.45;71.51;100609.19;5067866;28;45756;-63
2022/12/12 02:29:24;;;;;;;;;45.33;34.33;;;;;-0.41;71.81;100605.03;5064653;28;45541;-64
2022/12/12 02:32:08;;;;;;;;;46.67;31.33;;;;;-0.33;71.01;100602.78;5077655;27;45557;-61
2022/12/12 02:34:40;;;;;;;;;46.67;34.33;;;;;-0.34;71.23;100606.19;5062285;28;45359;-66
2022/12/12 02:37:16;;;;;;;;;42.00;33.67;;;;;-0.37;70.76;100600.91;5058927;28;45629;-63
2022/12/12 02:39:51;;;;;;;;;42.33;33.33;;;;;-0.39;71.31;100602.53;5076096;28;45730;-64
2022/12/12 02:42:19;;;;;;;;;33.33;31.33;;;;;-0.38;71.22;100609.44;5075507;27;46167;-65
2022/12/12 02:44:54;;;;;;;;;37.25;28.00;;;;;-0.28;70.94;100612.50;5077343;28;45463;-63
2022/12/12 02:47:31;;;;;;;;;37.00;27.00;;;;;-0.28;70.87;100616.75;5079973;27;45582;-63
2022/12/12 02:50:08;;;;;;;;;38.33;32.67;;;;;-0.33;71.05;100607.94;5080241;27;45267;-66
2022/12/12 02:52:35;;;;;;;;;46.33;34.00;;;;;-0.37;71.19;100603.50;5056994;28;45596;-62
2022/12/12 02:55:01;;;;;;;;;41.75;31.75;;;;;-0.36;70.52;100607.81;5057469;28;45733;-62
2022/12/12 02:57:29;;;;;;;;;34.33;30.67;;;;;-0.41;70.66;100599.88;5075674;27;45389;-61
2022/12/12 03:00:08;;;;;;;;;44.67;30.33;;;;;-0.34;70.63;100604.50;5076014;27;45390;-61
2022/12/12 03:09:17;;;;;;;;;43.67;30.00;;;;;-0.28;71.32;100604.75;5076207;27;45369;-63
2022/12/12 03:12:01;;;;;;;;;36.67;28.00;;;;;-0.26;71.58;100605.72;5078292;28;45555;-64
2022/12/12 03:14:49;;;;;;;;;42.33;34.00;;;;;-0.29;70.27;100602.13;5056721;28;47826;-63
2022/12/12 03:17:35;;;;;;;;;40.00;31.33;;;;;-0.33;70.35;100587.34;5074941;28;45453;-63
2022/12/12 03:20:25;;;;;;;;;40.00;35.00;;;;;-0.38;70.59;100597.47;5075205;28;45496;-61
2022/12/12 03:22:59;;;;;;;;;42.00;30.00;;;;;-0.38;72.15;100600.03;5078199;28;45390;-62
2022/12/12 03:25:47;;;;;;;;;49.00;33.00;;;;;-0.39;71.06;100594.81;5057244;28;47744;-63
2022/12/12 03:28:21;;;;;;;;;43.00;35.67;;;;;-0.48;71.42;100590.13;5078307;28;45498;-63
2022/12/12 03:30:54;;;;;;;;;38.67;27.67;;;;;-0.50;71.55;100584.94;5079538;27;45797;-62
2022/12/12 03:33:34;;;;;;;;;36.00;29.33;;;;;-0.47;71.91;100586.78;5060618;28;45562;-62
2022/12/12 03:36:09;;;;;;;;;51.67;32.00;;;;;-0.48;71.58;100569.56;5061189;28;45454;-64
2022/12/12 03:38:40;;;;;;;;;35.33;28.33;;;;;-0.34;71.20;100595.91;5079002;28;45351;-64
2022/12/12 03:41:12;;;;;;;;;40.00;31.67;;;;;-0.39;71.90;100589.66;5079395;28;45488;-63
2022/12/12 03:44:02;;;;;;;;;41.50;32.50;;;;;-0.33;71.83;100589.91;5060720;28;45406;-65
2022/12/12 03:46:46;;;;;;;;;41.33;33.67;;;;;-0.35;71.83;100587.31;5079007;28;45417;-65
2022/12/12 03:49:28;;;;;;;;;37.50;32.00;;;;;-0.31;71.54;100599.50;5079174;28;45355;-63
2022/12/12 03:52:17;;;;;;;;;36.67;35.33;;;;;-0.27;71.52;100593.66;5075938;28;45525;-62
2022/12/12 03:54:55;;;;;;;;;40.33;32.00;;;;;-0.17;71.61;100612.06;5056384;28;45700;-64
2022/12/12 03:57:35;;;;;;;;;40.67;33.00;;;;;-0.18;71.42;100606.03;5077261;28;45541;-65
2022/12/12 04:00:07;;;;;;;;;33.33;29.67;;;;;-0.26;71.35;100590.28;5074468;28;46163;-65
2022/12/12 04:02:51;;;;;;;;;52.33;37.67;;;;;-0.19;71.99;100611.13;5074622;28;45913;-63
2022/12/12 04:05:24;;;;;;;;;49.33;35.00;;;;;-0.21;71.52;100616.22;5079440;27;45346;-64
2022/12/12 04:08:06;;;;;;;;;41.00;29.00;;;;;-0.24;71.16;100614.41;5057063;28;47639;-64
2022/12/12 04:13:34;;;;;;;;;47.67;36.67;;;;;-0.25;71.57;100616.88;5075023;27;45387;-62
2022/12/12 04:16:17;;;;;;;;;45.67;33.00;;;;;-0.20;71.36;100622.25;5077994;28;46104;-64
2022/12/12 04:18:51;;;;;;;;;43.33;35.00;;;;;-0.23;71.82;100618.72;5052720;28;46792;-66
2022/12/12 04:24:42;;;;;;;;;38.67;31.67;;;;;-0.29;71.56;100626.16;5074066;28;45450;-64
2022/12/12 04:27:30;;;;;;;;;39.33;32.00;;;;;-0.30;72.12;100623.53;5074826;28;45683;-63
2022/12/12 04:30:08;;;;;;;;;35.33;31.33;;;;;-0.28;71.43;100621.91;5073872;28;45456;-62
2022/12/12 04:32:38;;;;;;;;;37.00;32.00;;;;;-0.28;71.70;100632.22;5046980;28;45507;-63
2022/12/12 04:35:04;;;;;;;;;34.67;29.00;;;;;-0.24;72.13;100634.06;5069359;28;45412;-63
2022/12/12 04:37:37;;;;;;;;;39.75;30.00;;;;;-0.39;71.26;100594.81;5076608;28;45683;-66
2022/12/12 04:40:08;;;;;;;;;38.50;29.25;;;;;-0.23;71.15;100613.56;5056927;28;47700;-62
2022/12/12 04:42:39;;;;;;;;;37.00;29.00;;;;;-0.10;70.53;100626.97;5073832;27;45426;-65
2022/12/12 04:45:14;;;;;;;;;46.33;35.33;;;;;-0.05;71.27;100636.66;5052124;28;45525;-65
2022/12/12 04:47:43;;;;;;;;;42.67;34.00;;;;;-0.12;71.48;100626.91;5065835;28;45355;-67
2022/12/12 04:50:11;;;;;;;;;37.67;31.00;;;;;-0.11;71.66;100631.22;5078239;28;46792;-65
2022/12/12 04:52:40;;;;;;;;;43.33;32.67;;;;;-0.20;70.63;100615.38;5056660;28;45495;-64
2022/12/12 04:55:16;;;;;;;;;35.33;34.33;;;;;-0.10;71.26;100629.53;5074285;28;45808;-64
2022/12/12 04:57:46;;;;;;;;;43.67;34.33;;;;;-0.21;70.95;100629.09;5075161;28;45477;-65
2022/12/12 05:00:13;;;;;;;;;40.33;32.33;;;;;-0.12;71.25;100634.63;5077952;28;45435;-66
2022/12/12 05:02:56;;;;;;;;;41.67;29.00;;;;;-0.10;71.34;100620.09;5059722;28;45543;-64
2022/12/12 05:05:38;;;;;;;;;46.67;36.33;;;;;-0.13;71.49;100629.41;5059534;28;45621;-62
2022/12/12 05:08:25;;;;;;;;;43.00;34.00;;;;;-0.04;71.08;100629.81;5065097;28;45423;-63
2022/12/12 05:10:54;;;;;;;;;35.50;29.50;;;;;0.01;70.99;100636.03;5077493;28;46598;-63
2022/12/12 05:13:23;;;;;;;;;45.00;29.75;;;;;-0.01;70.77;100623.09;5074257;28;45567;-64
2022/12/12 05:15:53;;;;;;;;;44.00;31.00;;;;;0.04;71.37;100632.72;5073577;28;45535;-62
2022/12/12 05:18:20;;;;;;;;;47.67;35.00;;;;;0.10;70.42;100641.59;5073814;27;45426;-63
2022/12/12 05:20:46;;;;;;;;;42.67;34.33;;;;;0.09;70.54;100638.94;5073316;27;46492;-65
2022/12/12 05:23:12;;;;;;;;;35.67;29.33;;;;;-0.09;70.99;100613.28;5055112;28;45630;-64
2022/12/12 05:25:37;;;;;;;;;41.67;29.33;;;;;0.04;70.60;100628.44;5055579;28;45916;-63
2022/12/12 05:28:03;;;;;;;;;36.00;30.25;;;;;0.16;70.17;100638.38;5054923;28;45493;-64
2022/12/12 05:30:29;;;;;;;;;42.67;33.67;;;;;0.11;70.37;100619.28;5057771;28;47156;-63
2022/12/12 05:32:55;;;;;;;;;37.00;31.33;;;;;0.19;69.95;100625.63;5061226;28;45639;-63
2022/12/12 05:35:21;;;;;;;;;45.00;37.00;;;;;0.06;70.17;100607.91;5071160;28;45929;-63
2022/12/12 05:37:46;;;;;;;;;36.00;31.67;;;;;0.17;70.24;100625.56;5073333;28;45495;-62
2022/12/12 05:40:12;;;;;;;;;40.00;31.50;;;;;0.13;70.28;100615.06;5072566;28;45574;-61
2022/12/12 05:42:39;;;;;;;;;48.00;35.33;;;;;-0.01;70.71;100617.06;5057480;28;46148;-63
2022/12/12 05:45:06;;;;;;;;;48.67;35.33;;;;;-0.05;71.07;100622.88;5076317;28;45389;-63
2022/12/12 05:47:32;;;;;;;;;45.33;37.00;;;;;-0.16;70.72;100614.72;5073186;27;45516;-61
2022/12/12 05:49:58;;;;;;;;;42.67;32.33;;;;;-0.26;71.26;100598.00;5054465;28;46856;-65
2022/12/12 05:52:24;;;;;;;;;41.33;35.67;;;;;-0.14;71.47;100623.38;5051062;28;45784;-65
2022/12/12 05:54:50;;;;;;;;;48.67;34.33;;;;;-0.21;71.46;100616.22;5062930;28;45708;-64
2022/12/12 05:57:17;;;;;;;;;52.33;31.67;;;;;-0.28;71.55;100609.03;5069468;28;45338;-64
2022/12/12 05:59:44;;;;;;;;;43.00;34.67;;;;;-0.14;71.36;100628.53;5058391;28;46229;-64
2022/12/12 06:02:09;;;;;;;;;35.00;29.33;;;;;-0.14;71.27;100618.25;5072835;27;45512;-63
2022/12/12 06:04:35;;;;;;;;;44.67;34.67;;;;;-0.10;70.99;100634.69;5074641;28;45516;-63
2022/12/12 06:07:00;;;;;;;;;37.33;30.00;;;;;-0.18;71.39;100610.31;5075136;28;45497;-65
2022/12/12 06:09:26;;;;;;;;;48.67;36.00;;;;;-0.05;70.88;100638.34;5072279;28;45422;-63
2022/12/12 06:11:52;;;;;;;;;43.00;36.67;;;;;-0.12;70.82;100629.50;5076243;28;45580;-63
2022/12/12 06:14:18;;;;;;;;;46.67;35.67;;;;;-0.15;71.29;100620.75;5076406;28;45535;-63
2022/12/12 06:16:43;;;;;;;;;44.33;34.67;;;;;-0.11;71.26;100625.22;5077308;28;45475;-65
2022/12/12 06:19:09;;;;;;;;;44.67;34.00;;;;;-0.09;71.16;100631.31;5075173;28;45476;-63
2022/12/12 06:21:35;;;;;;;;;50.67;33.00;;;;;-0.33;70.91;100577.06;5054718;28;45403;-63
2022/12/12 06:24:00;;;;;;;;;35.00;32.67;;;;;-0.02;70.62;100633.34;5054578;28;45728;-66
2022/12/12 06:26:26;;;;;;;;;43.67;36.33;;;;;-0.06;70.74;100629.72;5072617;27;45735;-61
2022/12/12 06:28:51;;;;;;;;;43.67;33.00;;;;;-0.03;70.83;100637.56;5076661;28;46411;-63
2022/12/12 06:31:17;;;;;;;;;44.67;34.33;;;;;-0.07;70.34;100622.84;5076529;28;45306;-68
2022/12/12 06:33:43;;;;;;;;;42.00;34.00;;;;;-0.03;70.95;100631.56;5062585;28;45423;-63
2022/12/12 06:36:21;;;;;;;;;49.00;35.00;;;;;0.03;70.51;100641.25;5074272;28;45535;-64
2022/12/12 06:38:46;;;;;;;;;27.33;24.00;;;;;0.14;70.41;100642.56;5072179;28;46496;-63
2022/12/12 06:41:13;;;;;;;;;45.00;34.67;;;;;0.02;69.98;100630.06;5072285;27;45875;-64
2022/12/12 06:43:40;;;;;;;;;52.33;35.00;;;;;0.07;70.69;100643.13;5053886;28;45464;-63
2022/12/12 06:46:11;;;;;;;;;50.00;38.67;;;;;0.02;70.91;100635.22;5077215;28;45720;-62
2022/12/12 06:48:37;;;;;;;;;44.00;36.33;;;;;0.10;70.08;100638.13;5076581;27;45471;-63
2022/12/12 06:51:07;;;;;;;;;43.00;36.00;;;;;-0.07;70.57;100621.94;5073999;28;45940;-62
2022/12/12 06:53:33;;;;;;;;;52.33;37.33;;;;;-0.03;70.28;100640.16;5054328;28;45455;-67
2022/12/12 06:56:06;;;;;;;;;42.67;34.00;;;;;0.03;71.21;100641.25;5054014;28;45806;-64
2022/12/12 06:58:31;;;;;;;;;42.33;34.33;;;;;0.04;70.18;100640.44;5071810;28;46722;-62
2022/12/12 07:00:57;;;;;;;;;40.33;33.67;;;;;0.11;70.37;100645.03;5073401;27;45449;-63
2022/12/12 07:03:22;;;;;;;;;44.33;35.00;;;;;0.04;70.24;100625.84;5054847;28;45863;-63
2022/12/12 07:05:48;;;;;;;;;44.67;31.67;;;;;0.12;69.75;100631.31;5069846;28;45411;-64
2022/12/12 07:08:14;;;;;;;;;47.33;35.67;;;;;0.06;70.35;100621.66;5055218;28;45575;-63
2022/12/12 07:10:41;;;;;;;;;47.00;37.33;;;;;-0.10;69.71;100606.38;5074957;28;45414;-63
2022/12/12 07:13:07;;;;;;;;;47.00;36.67;;;;;-0.05;70.17;100625.47;5057057;28;45451;-62
2022/12/12 07:15:32;;;;;;;;;51.33;38.33;;;;;-0.21;71.02;100621.38;5077086;27;45769;-62
2022/12/12 07:17:58;;;;;;;;;42.33;34.33;;;;;-0.23;70.05;100633.28;5058499;28;45676;-62
2022/12/12 07:20:24;;;;;;;;;47.00;35.33;;;;;-0.31;70.91;100638.09;5070479;27;45770;-62
2022/12/12 07:22:49;;;;;;;;;47.00;36.67;;;;;-0.18;71.58;100654.09;5071781;28;45702;-65
2022/12/12 07:25:15;;;;;;;;;39.33;33.67;;;;;-0.12;70.94;100647.50;5073794;27;45625;-62
2022/12/12 07:27:40;;;;;;;;;49.33;39.00;;;;;-0.14;70.87;100664.56;5075907;28;45498;-62
2022/12/12 07:30:07;;;;;;;;;50.00;37.33;;;;;-0.19;71.11;100660.03;5059238;28;45453;-62
2022/12/12 07:32:33;;;;;;;;;46.33;33.33;;;;;-0.34;70.75;100626.78;5048942;28;45473;-63
2022/12/12 07:34:59;;;;;;;;;44.33;33.33;;;;;-0.02;70.66;100661.66;5069682;28;45627;-63
2022/12/12 07:37:25;;;;;;;;;56.00;39.67;;;;;-0.10;70.89;100663.88;5059894;28;45385;-63
2022/12/12 07:39:51;;;;;;;;;56.33;37.67;;;;;-0.14;70.26;100662.00;5075277;27;45545;-63
2022/12/12 07:42:16;;;;;;;;;54.00;39.00;;;;;-0.30;70.51;100651.84;5055982;28;45429;-65
2022/12/12 07:44:42;;;;;;;;;45.67;32.33;;;;;-0.30;70.27;100654.41;5074948;27;45485;-63
2022/12/12 07:47:10;;;;;;;;;50.33;37.67;;;;;-0.20;70.04;100660.84;5056427;28;46840;-64
2022/12/12 07:49:36;;;;;;;;;51.67;40.33;;;;;-0.26;71.74;100658.88;5077471;28;45492;-64
2022/12/12 07:52:02;;;;;;;;;52.67;39.33;;;;;-0.23;70.77;100643.56;5060904;28;45319;-68
2022/12/12 07:54:28;;;;;;;;;53.00;39.33;;;;;-0.17;70.94;100660.97;5079922;28;45257;-62
2022/12/12 07:56:53;;;;;;;;;58.33;44.67;;;;;-0.20;71.01;100656.56;5079374;28;47250;-64
2022/12/12 07:59:19;;;;;;;;;60.33;40.33;;;;;-0.18;71.26;100660.09;5079290;28;45425;-66
2022/12/12 08:01:44;;;;;;;;;57.00;44.00;;;;;-0.17;70.62;100666.13;5079572;27;45506;-67
2022/12/12 08:04:10;;;;;;;;;50.00;37.33;;;;;-0.25;70.74;100660.66;5058495;28;45690;-66
2022/12/12 08:06:35;;;;;;;;;47.33;37.33;;;;;-0.17;71.15;100673.84;5074878;27;46137;-62
2022/12/12 08:09:01;;;;;;;;;55.33;41.67;;;;;-0.32;71.31;100669.78;5074303;28;45417;-66
2022/12/12 08:11:27;;;;;;;;;54.67;41.00;;;;;-0.24;71.15;100682.97;5076537;28;45394;-64
2022/12/12 08:13:52;;;;;;;;;51.00;40.00;;;;;-0.32;71.12;100682.66;5079595;27;45497;-64
2022/12/12 08:16:21;;;;;;;;;53.67;38.33;;;;;-0.21;71.19;100693.44;5078757;28;45944;-64
2022/12/12 08:18:47;;;;;;;;;54.00;42.00;;;;;-0.17;70.98;100694.44;5053745;28;45638;-63
2022/12/12 08:21:14;;;;;;;;;49.33;39.00;;;;;-0.35;70.38;100697.09;5053506;27;45436;-63
2022/12/12 08:23:41;;;;;;;;;57.00;42.00;;;;;-0.47;71.51;100700.84;5069485;28;45488;-61
2022/12/12 08:26:09;;;;;;;;;57.33;39.33;;;;;-0.47;71.91;100700.84;5050989;28;46202;-62
2022/12/12 08:28:36;;;;;;;;;51.33;41.00;;;;;-0.49;71.10;100692.19;5073639;28;45441;-64
2022/12/12 08:31:02;;;;;;;;;57.00;43.67;;;;;-0.44;71.14;100685.53;5050861;28;45563;-62
2022/12/12 08:33:28;;;;;;;;;55.33;42.33;;;;;-0.44;71.12;100695.84;5055075;28;45534;-62
2022/12/12 08:35:54;;;;;;;;;62.33;41.33;;;;;-0.35;70.81;100697.09;5053020;27;45661;-61
2022/12/12 08:38:19;;;;;;;;;55.33;41.33;;;;;-0.26;70.76;100698.38;5071466;27;45981;-63
2022/12/12 08:40:45;;;;;;;;;51.00;39.33;;;;;-0.15;70.51;100703.13;5069337;28;45601;-65
2022/12/12 08:43:10;;;;;;;;;49.33;38.33;;;;;-0.15;69.13;100700.53;5071469;28;45493;-63
2022/12/12 08:45:37;;;;;;;;;49.67;37.00;;;;;-0.18;69.18;100692.69;5052046;28;46904;-63
2022/12/12 08:48:09;;;;;;;;;52.00;41.33;;;;;-0.14;68.65;100725.47;5055095;28;45430;-64
2022/12/12 08:50:38;;;;;;;;;54.00;41.33;;;;;-0.20;68.89;100723.50;5061012;27;45474;-61
2022/12/12 08:53:07;;;;;;;;;50.00;38.33;;;;;-0.20;69.32;100717.47;5059538;28;45439;-64
2022/12/12 08:55:36;;;;;;;;;54.67;42.33;;;;;-0.19;69.27;100719.22;5049458;28;46801;-61
2022/12/12 08:58:07;;;;;;;;;51.33;38.67;;;;;-0.07;69.20;100724.91;5042240;28;45750;-65
2022/12/12 09:00:32;;;;;;;;;59.00;41.33;;;;;-0.10;68.57;100728.25;5046019;28;45389;-65
2022/12/12 09:02:58;;;;;;;;;58.67;41.33;;;;;-0.20;69.15;100732.94;5055012;28;45581;-64
2022/12/12 09:05:24;;;;;;;;;51.67;39.67;;;;;-0.50;69.20;100720.41;5061486;28;45582;-63
2022/12/12 09:07:49;;;;;;;;;57.67;38.33;;;;;-0.53;69.43;100721.16;5034824;28;45466;-63
2022/12/12 09:10:15;;;;;;;;;50.33;40.00;;;;;-0.44;70.66;100725.84;5061339;28;45422;-63
2022/12/12 09:12:40;;;;;;;;;46.67;37.67;;;;;-0.33;70.29;100728.91;5068177;27;45541;-63
2022/12/12 09:15:07;;;;;;;;;53.67;38.67;;;;;-0.44;69.42;100700.13;5068224;27;46016;-62
2022/12/12 09:17:33;;;;;;;;;56.67;42.00;;;;;-0.42;69.67;100726.81;5047171;27;45928;-62
2022/12/12 09:19:58;;;;;;;;;61.33;46.67;;;;;-0.54;69.58;100711.69;5058156;28;45500;-65
2022/12/12 09:22:26;;;;;;;;;56.00;43.67;;;;;-0.53;69.31;100735.72;5071155;28;45535;-62
2022/12/12 09:24:51;;;;;;;;;56.67;42.00;;;;;-0.59;69.78;100715.72;5052512;28;46782;-61
2022/12/12 09:27:17;;;;;;;;;57.67;42.33;;;;;-0.58;70.41;100707.19;5054755;28;45326;-65
2022/12/12 09:29:42;;;;;;;;;57.67;36.00;;;;;-0.54;69.95;100706.53;5059855;28;45561;-63
2022/12/12 09:32:08;;;;;;;;;55.67;41.00;;;;;-0.49;70.04;100710.19;5065698;28;45593;-66
2022/12/12 09:34:35;;;;;;;;;56.67;39.67;;;;;-0.41;69.92;100717.38;5048817;28;45700;-63
2022/12/12 09:37:01;;;;;;;;;56.00;42.67;;;;;-0.43;70.78;100712.16;5072423;28;45983;-63
2022/12/12 09:39:26;;;;;;;;;47.33;37.67;;;;;-0.33;69.99;100714.34;5052324;28;45647;-62
2022/12/12 09:41:52;;;;;;;;;61.33;41.33;;;;;-0.25;69.58;100723.28;5048682;28;45422;-63
2022/12/12 09:44:21;;;;;;;;;58.33;40.67;;;;;-0.15;68.86;100719.44;5061419;28;45863;-63
2022/12/12 09:47:04;;;;;;;;;54.67;41.00;;;;;-0.08;69.12;100710.31;5052073;28;45371;-62
2022/12/12 09:49:41;;;;;;;;;59.00;42.00;;;;;-0.03;68.46;100717.41;5053051;28;45497;-62
2022/12/12 09:52:12;;;;;;;;;59.33;44.33;;;;;-0.22;68.85;100709.69;5067754;28;45600;-62
2022/12/12 09:54:38;;;;;;;;;64.33;47.33;;;;;-0.27;69.52;100706.91;5065778;27;45760;-63
2022/12/12 09:57:34;;;;;;;;;56.67;41.67;;;;;-0.07;68.35;100725.81;5063937;28;45503;-64
2022/12/12 10:00:10;;;;;;;;;67.00;45.00;;;;;-0.05;67.86;100711.34;5068886;28;45864;-66
2022/12/12 10:02:39;;;;;;;;;56.67;44.00;;;;;0.03;68.27;100713.38;5066583;28;45621;-66
2022/12/12 10:05:16;;;;;;;;;56.67;40.67;;;;;0.19;66.55;100715.75;5069328;28;45831;-63
2022/12/12 10:08:08;;;;;;;;;60.67;45.00;;;;;0.10;67.26;100715.41;5069939;28;46593;-61
2022/12/12 10:10:40;;;;;;;;;59.00;45.00;;;;;0.03;67.31;100705.63;5057443;28;45552;-63
2022/12/12 10:13:15;;;;;;;;;54.00;40.00;;;;;-0.04;67.31;100697.63;5064814;28;45387;-61
2022/12/12 10:15:52;;;;;;;;;54.33;43.33;;;;;0.08;67.12;100688.69;5065218;28;45673;-63
2022/12/12 10:18:33;;;;;;;;;60.67;45.33;;;;;0.19;66.50;100671.97;5067001;28;45617;-64
2022/12/12 10:21:03;;;;;;;;;58.67;45.33;;;;;0.31;66.75;100676.78;5064433;28;45460;-62
2022/12/12 10:23:31;;;;;;;;;61.00;46.00;;;;;0.24;66.89;100672.19;5065657;28;45481;-63
2022/12/12 10:26:04;;;;;;;;;62.00;46.67;;;;;0.26;66.74;100680.84;5065961;28;45632;-62
2022/12/12 10:28:31;;;;;;;;;59.33;42.00;;;;;0.37;67.90;100677.03;5049470;28;45604;-62
2022/12/12 10:31:08;;;;;;;;;53.00;41.67;;;;;0.48;65.91;100680.09;5067445;28;45515;-62
2022/12/12 10:33:46;;;;;;;;;55.00;40.00;;;;;0.47;65.83;100668.00;5066091;28;45460;-62
2022/12/12 10:36:12;;;;;;;;;63.33;46.00;;;;;0.57;65.01;100683.00;5070209;28;45618;-62
2022/12/12 10:39:03;;;;;;;;;54.00;41.33;;;;;0.62;65.27;100702.16;5071307;28;45477;-63
2022/12/12 10:41:47;;;;;;;;;61.33;45.67;;;;;1.14;63.08;100703.34;5068681;28;45494;-64
2022/12/12 10:44:24;;;;;;;;;59.33;44.33;;;;;1.08;63.15;100709.16;5071590;28;45960;-64
2022/12/12 10:47:17;;;;;;;;;63.00;42.00;;;;;1.02;63.88;100696.91;5071728;28;45779;-65
2022/12/12 10:49:42;;;;;;;;;54.33;41.33;;;;;1.02;63.04;100694.34;5051361;28;45540;-63
2022/12/12 10:52:20;;;;;;;;;62.00;44.00;;;;;0.92;62.99;100668.09;5065888;28;45475;-64
2022/12/12 10:54:59;;;;;;;;;55.67;41.67;;;;;0.95;63.02;100671.69;5070649;28;46048;-68
2022/12/12 10:57:34;;;;;;;;;52.67;39.00;;;;;0.95;63.10;100668.22;5050687;28;46376;-63
2022/12/12 11:00:16;;;;;;;;;62.33;41.00;;;;;1.03;62.94;100667.72;5069375;28;45452;-64
2022/12/12 11:02:43;;;;;;;;;56.67;40.00;;;;;1.18;61.90;100671.72;5069435;28;45581;-62
2022/12/12 11:05:25;;;;;;;;;58.00;44.67;;;;;0.89;62.63;100655.09;5054949;28;45393;-62
2022/12/12 11:08:03;;;;;;;;;55.33;41.67;;;;;0.80;62.74;100655.59;5073474;28;46556;-64
2022/12/12 11:10:30;;;;;;;;;59.00;41.33;;;;;1.09;62.99;100653.28;5077563;28;45455;-64
2022/12/12 11:13:02;;;;;;;;;53.33;42.00;;;;;1.32;62.85;100641.28;5075061;28;45613;-63
2022/12/12 11:15:36;;;;;;;;;52.33;42.00;;;;;1.38;62.19;100624.34;5086100;27;45643;-64
2022/12/12 11:18:02;;;;;;;;;59.33;41.67;;;;;1.43;61.10;100624.50;5070569;28;46200;-63
2022/12/12 11:20:27;;;;;;;;;49.67;39.33;;;;;1.24;61.50;100594.56;5048905;28;45723;-63
2022/12/12 11:22:55;;;;;;;;;54.00;42.67;;;;;1.60;60.88;100607.06;5069238;27;45698;-63
2022/12/12 11:25:28;;;;;;;;;62.33;45.00;;;;;1.76;59.98;100593.88;5051870;28;45927;-62
2022/12/12 11:28:00;;;;;;;;;56.00;41.67;;;;;1.89;60.12;100582.25;5070497;28;45649;-62
2022/12/12 11:30:43;;;;;;;;;59.33;41.00;;;;;1.98;60.11;100586.88;5068610;27;45968;-65
2022/12/12 11:33:19;;;;;;;;;50.33;39.67;;;;;2.04;59.46;100577.63;5066192;28;45473;-63
2022/12/12 11:35:45;;;;;;;;;51.33;42.33;;;;;2.02;58.99;100579.28;5072948;28;45454;-62
2022/12/12 11:38:27;;;;;;;;;47.33;38.00;;;;;2.22;59.24;100590.25;5050945;28;45519;-66
2022/12/12 11:41:03;;;;;;;;;58.00;41.67;;;;;2.32;58.89;100591.44;5068148;28;45489;-63